Time;durP1;ratioP1;P1;durP2;ratioP2;P2;SDS_P1;SDS_P2;PMS_P1;PMS_P2;Temp;Humidity;BMP_temperature;BMP_pressure;BME280_temperature;BME280_humidity;BME280_pressure;Samples;Min_cycle;Max_cycle;Signal;HPM_P1;HPM_P2
2022/08/04 00:00:11;;;;;;;;;6.25;6.25;;;;;29.20;35.09;98976.81;5042049;28;45391;-51
2022/08/04 00:02:52;;;;;;;;;7.75;7.75;;;;;29.14;35.35;98976.53;5053163;28;45443;-52
2022/08/04 00:05:36;;;;;;;;;7.00;7.00;;;;;29.14;35.31;98986.56;5050519;28;45423;-48
2022/08/04 00:08:15;;;;;;;;;8.25;7.50;;;;;29.11;35.42;98982.31;5055260;28;45581;-48
2022/08/04 00:10:53;;;;;;;;;8.25;8.25;;;;;29.09;35.47;98986.25;5054775;28;45531;-51
2022/08/04 00:13:22;;;;;;;;;5.75;5.75;;;;;29.08;35.51;98987.28;5041665;28;45354;-49
2022/08/04 00:15:53;;;;;;;;;7.00;7.00;;;;;29.04;35.99;98992.22;5048291;28;46395;-50
2022/08/04 00:18:25;;;;;;;;;8.75;7.25;;;;;29.03;35.28;98986.97;5055093;28;45450;-51
2022/08/04 00:20:57;;;;;;;;;8.50;8.50;;;;;29.03;35.24;98981.53;5049343;28;45727;-50
2022/08/04 00:23:24;;;;;;;;;8.50;8.50;;;;;29.02;35.84;98988.84;5054502;28;45236;-51
2022/08/04 00:25:50;;;;;;;;;5.25;5.25;;;;;28.94;35.94;98986.19;5048404;28;45539;-51
2022/08/04 00:28:16;;;;;;;;;7.75;5.50;;;;;28.92;36.05;98981.97;5052371;28;45640;-52
2022/08/04 00:30:41;;;;;;;;;8.50;8.00;;;;;28.92;35.78;98990.13;5050934;28;45562;-49
2022/08/04 00:33:07;;;;;;;;;7.50;7.50;;;;;28.92;35.53;98984.69;5053421;28;45400;-51
2022/08/04 00:35:33;;;;;;;;;7.00;7.00;;;;;28.90;35.60;98975.88;5054833;28;46525;-48
2022/08/04 00:38:00;;;;;;;;;8.25;8.25;;;;;28.89;35.82;98979.63;5054715;28;45451;-50
2022/08/04 00:40:47;;;;;;;;;7.25;7.25;;;;;28.85;36.17;98981.00;5054752;28;45467;-52
2022/08/04 00:43:30;;;;;;;;;9.00;7.75;;;;;28.82;36.04;98980.34;5054773;28;45352;-53
2022/08/04 00:46:20;;;;;;;;;8.50;8.50;;;;;28.80;35.96;98987.00;5054353;28;45425;-53
2022/08/04 00:48:57;;;;;;;;;7.75;7.50;;;;;28.77;36.55;98987.31;5051325;28;45388;-52
2022/08/04 00:51:48;;;;;;;;;6.00;6.00;;;;;28.73;36.14;98988.69;5048060;28;45472;-52
2022/08/04 00:54:19;;;;;;;;;9.00;8.00;;;;;28.64;36.52;98990.63;5041706;28;45338;-52
2022/08/04 00:57:11;;;;;;;;;11.25;9.25;;;;;28.56;36.52;98982.53;5052484;28;45420;-52
2022/08/04 00:59:39;;;;;;;;;9.00;9.00;;;;;28.47;36.74;98991.75;5042798;28;45399;-52
2022/08/04 01:02:19;;;;;;;;;9.25;9.25;;;;;28.39;36.88;98997.22;5053772;28;45380;-48
2022/08/04 01:05:11;;;;;;;;;11.00;11.00;;;;;28.30;36.74;98995.59;5044983;28;45408;-51
2022/08/04 01:08:18;;;;;;;;;7.50;7.50;;;;;28.23;36.89;98998.16;5051695;28;45884;-49
2022/08/04 01:10:56;;;;;;;;;8.50;7.50;;;;;28.19;36.67;98993.22;5055301;28;45417;-51
2022/08/04 01:13:54;;;;;;;;;11.25;9.00;;;;;28.14;36.87;98997.31;5041715;28;45255;-51
2022/08/04 01:16:24;;;;;;;;;10.00;8.25;;;;;28.07;37.18;99001.75;5014243;28;45499;-48
2022/08/04 01:19:00;;;;;;;;;11.00;9.50;;;;;28.05;37.53;99000.22;5048859;28;46587;-51
2022/08/04 01:21:28;;;;;;;;;9.25;9.25;;;;;28.00;37.70;99003.44;5048977;28;45360;-52
2022/08/04 01:24:39;;;;;;;;;9.25;9.00;;;;;27.91;37.63;99004.50;5049182;28;45479;-53
2022/08/04 01:27:10;;;;;;;;;8.50;8.50;;;;;27.86;37.67;99009.59;5034330;28;45566;-52
2022/08/04 01:29:54;;;;;;;;;10.00;10.00;;;;;27.82;38.39;99010.16;5048818;28;45627;-53
2022/08/04 01:32:23;;;;;;;;;9.50;8.75;;;;;27.80;38.38;99007.63;5044447;28;45417;-52
2022/08/04 01:35:01;;;;;;;;;8.00;8.00;;;;;27.77;38.55;99008.78;5049326;28;45376;-50
2022/08/04 01:37:44;;;;;;;;;10.00;8.75;;;;;27.78;38.32;99007.78;5048851;28;45380;-52
2022/08/04 01:40:13;;;;;;;;;9.75;9.50;;;;;27.77;37.70;99003.38;5050560;28;45448;-53
2022/08/04 01:42:40;;;;;;;;;10.00;9.00;;;;;27.76;37.80;99008.97;5055482;28;45405;-52
2022/08/04 01:45:09;;;;;;;;;9.50;9.00;;;;;27.76;37.68;99004.41;5048730;28;45592;-52
2022/08/04 01:47:37;;;;;;;;;7.50;7.50;;;;;27.75;38.14;99005.41;5055298;28;45376;-51
2022/08/04 01:50:07;;;;;;;;;9.00;9.00;;;;;27.77;38.80;99013.38;5048289;28;45416;-51
2022/08/04 01:52:37;;;;;;;;;11.25;10.75;;;;;27.75;39.18;99010.00;5054921;28;45356;-50
2022/08/04 01:55:05;;;;;;;;;10.00;9.25;;;;;27.69;39.05;99016.09;5050422;28;45494;-52
2022/08/04 01:57:33;;;;;;;;;8.25;8.25;;;;;27.62;39.13;99013.25;5055357;28;45507;-52
2022/08/04 02:00:00;;;;;;;;;13.25;13.25;;;;;27.57;39.33;99028.31;5046078;28;46207;-53
2022/08/04 02:02:26;;;;;;;;;8.25;8.25;;;;;27.50;39.67;99011.84;5053997;28;45302;-50
2022/08/04 02:04:51;;;;;;;;;11.75;11.75;;;;;27.47;39.90;99014.94;5048073;28;45488;-48
2022/08/04 02:07:32;;;;;;;;;12.25;10.75;;;;;27.45;40.43;99012.41;5050581;28;45374;-51
2022/08/04 02:10:24;;;;;;;;;14.00;12.25;;;;;27.41;40.15;99008.31;5048668;28;47412;-52
2022/08/04 02:13:12;;;;;;;;;10.50;10.50;;;;;27.33;40.37;99013.75;5052728;28;45353;-52
2022/08/04 02:16:00;;;;;;;;;9.50;9.50;;;;;27.26;40.41;99017.31;5052059;28;45386;-50
2022/08/04 02:18:51;;;;;;;;;5.00;5.00;;;;;27.23;40.67;99004.13;5052736;28;45361;-52
2022/08/04 02:21:19;;;;;;;;;8.00;8.00;;;;;27.18;40.55;99015.44;5050437;28;45447;-50
2022/08/04 02:23:50;;;;;;;;;7.75;7.75;;;;;27.15;40.57;99009.53;5049839;28;45398;-52
2022/08/04 02:26:26;;;;;;;;;9.00;9.00;;;;;27.12;40.53;99008.03;5048756;28;45493;-52
2022/08/04 02:29:07;;;;;;;;;9.75;9.75;;;;;27.12;40.46;99015.28;5048764;28;45662;-48
2022/08/04 02:31:46;;;;;;;;;11.50;10.50;;;;;27.10;40.83;99016.31;5045251;28;46158;-50
2022/08/04 02:34:27;;;;;;;;;12.00;10.25;;;;;27.04;40.52;99016.13;5047563;28;45472;-52
2022/08/04 02:36:53;;;;;;;;;8.25;8.25;;;;;26.95;41.01;99011.72;5044688;28;45435;-52
2022/08/04 02:39:20;;;;;;;;;7.25;6.50;;;;;26.95;41.63;99017.16;5047916;28;45432;-53
2022/08/04 02:41:47;;;;;;;;;11.25;11.25;;;;;26.92;41.69;99022.84;5051650;28;46611;-48
2022/08/04 02:44:18;;;;;;;;;9.75;9.75;;;;;26.92;41.17;99017.44;5049516;28;45381;-50
2022/08/04 02:46:45;;;;;;;;;8.50;8.25;;;;;26.92;41.44;99018.28;5051053;28;45250;-53
2022/08/04 02:49:11;;;;;;;;;11.00;8.75;;;;;26.90;41.38;99014.91;5050216;28;45460;-52
2022/08/04 02:51:41;;;;;;;;;11.00;10.75;;;;;26.88;41.85;99014.22;5047113;28;46452;-53
2022/08/04 02:54:08;;;;;;;;;7.75;7.00;;;;;26.88;41.23;99013.38;5054114;28;45621;-52
2022/08/04 02:56:35;;;;;;;;;11.25;11.25;;;;;26.89;41.25;99025.88;5052090;28;45433;-51
2022/08/04 02:59:11;;;;;;;;;9.50;9.50;;;;;26.91;41.00;99022.00;5054422;28;45571;-50
2022/08/04 03:01:38;;;;;;;;;9.75;9.75;;;;;26.90;41.59;99016.75;5051085;28;46477;-51
2022/08/04 03:04:20;;;;;;;;;9.75;9.75;;;;;26.87;42.09;99017.94;5054748;28;45404;-53
2022/08/04 03:07:24;;;;;;;;;10.25;9.75;;;;;26.81;42.62;99015.91;5056281;28;45537;-52
2022/08/04 03:10:13;;;;;;;;;11.00;9.75;;;;;26.71;42.33;99013.34;5042751;28;45401;-53
2022/08/04 03:13:16;;;;;;;;;11.50;11.50;;;;;26.66;42.37;99021.09;5056282;28;45986;-53
2022/08/04 03:15:51;;;;;;;;;10.25;10.25;;;;;26.62;42.25;99016.22;5047574;28;45342;-51
2022/08/04 03:18:51;;;;;;;;;10.00;9.00;;;;;26.60;41.94;99019.09;5056335;28;45639;-50
2022/08/04 03:21:31;;;;;;;;;8.00;8.00;;;;;26.59;43.10;99012.00;5052518;28;45467;-52
2022/08/04 03:24:31;;;;;;;;;10.50;9.75;;;;;26.55;42.95;99010.63;5051096;28;46380;-51
2022/08/04 03:27:19;;;;;;;;;11.00;9.25;;;;;26.54;42.13;99011.63;5048491;28;45959;-50
2022/08/04 03:29:54;;;;;;;;;10.25;10.00;;;;;26.54;42.35;99006.22;5051227;28;45406;-52
2022/08/04 03:32:25;;;;;;;;;13.00;10.50;;;;;26.58;42.13;99006.75;5052114;28;45454;-51
2022/08/04 03:35:02;;;;;;;;;8.50;8.50;;;;;26.62;42.49;99008.09;5050535;28;46674;-51
2022/08/04 03:37:36;;;;;;;;;9.75;9.75;;;;;26.61;42.19;98999.16;5049949;28;45437;-51
2022/08/04 03:40:20;;;;;;;;;9.00;9.00;;;;;26.62;42.23;99008.97;5048707;28;45480;-51
2022/08/04 03:43:02;;;;;;;;;8.75;8.75;;;;;26.62;42.27;99005.41;5056545;28;45459;-50
2022/08/04 03:45:30;;;;;;;;;10.25;8.75;;;;;26.63;42.56;99002.53;5052827;28;46602;-51
2022/08/04 03:48:36;;;;;;;;;12.50;11.25;;;;;26.66;42.11;99004.03;5056436;28;45432;-50
2022/08/04 03:53:58;;;;;;;;;11.00;11.00;;;;;26.66;42.46;99006.75;5053265;28;45484;-51
2022/08/04 03:56:58;;;;;;;;;10.00;10.00;;;;;26.66;42.46;99002.19;5055914;28;45689;-49
2022/08/04 03:59:36;;;;;;;;;13.00;12.00;;;;;26.69;42.58;99006.41;5042100;28;45576;-50
2022/08/04 04:02:01;;;;;;;;;13.00;13.00;;;;;26.70;42.82;99008.09;5056496;28;45372;-53
2022/08/04 04:04:45;;;;;;;;;15.75;14.75;;;;;26.71;42.83;99009.81;5048522;28;45444;-52
2022/08/04 04:07:29;;;;;;;;;11.00;11.00;;;;;26.71;42.70;99012.50;5056828;28;46698;-50
2022/08/04 04:10:07;;;;;;;;;12.00;11.00;;;;;26.71;43.00;99007.09;5047647;27;45393;-51
2022/08/04 04:13:01;;;;;;;;;12.25;11.25;;;;;26.71;42.85;99007.94;5052857;28;45556;-53
2022/08/04 04:15:35;;;;;;;;;12.25;12.25;;;;;26.66;42.52;99006.75;5045797;28;45379;-54
2022/08/04 04:18:06;;;;;;;;;12.25;12.25;;;;;26.60;42.74;99002.00;5050360;28;46003;-53
2022/08/04 04:21:02;;;;;;;;;10.25;10.25;;;;;26.56;42.46;99008.75;5048653;28;45370;-54
2022/08/04 04:23:58;;;;;;;;;12.25;9.75;;;;;26.53;42.84;99012.63;5051407;28;45565;-53
2022/08/04 04:26:44;;;;;;;;;12.50;11.25;;;;;26.52;42.74;99007.38;5047543;28;45626;-55
2022/08/04 04:29:27;;;;;;;;;11.50;11.50;;;;;26.53;42.54;99014.50;5053460;28;47128;-56
2022/08/04 04:32:13;;;;;;;;;7.25;7.25;;;;;26.51;42.65;99017.34;5054340;28;45433;-56
2022/08/04 04:34:47;;;;;;;;;12.00;9.75;;;;;26.50;42.56;99017.53;5052600;28;45460;-56
2022/08/04 04:37:49;;;;;;;;;14.25;13.00;;;;;26.51;42.68;99019.22;5050102;28;45676;-54
2022/08/04 04:40:33;;;;;;;;;4.00;3.00;;;;;26.51;42.97;99020.06;5051201;28;46718;-54
2022/08/04 04:43:19;;;;;;;;;10.50;10.50;;;;;26.53;42.76;99019.91;5043178;28;45524;-54
2022/08/04 04:45:59;;;;;;;;;11.75;11.50;;;;;26.54;42.97;99021.59;5052528;28;45444;-61
2022/08/04 04:48:43;;;;;;;;;12.00;12.00;;;;;26.58;43.17;99015.69;5047369;28;45489;-54
2022/08/04 04:51:35;;;;;;;;;10.00;10.00;;;;;26.62;43.16;99022.47;5053160;28;46593;-53
2022/08/04 04:54:19;;;;;;;;;13.50;12.25;;;;;26.65;43.21;99024.81;5049607;28;45431;-55
2022/08/04 04:56:50;;;;;;;;;12.50;10.75;;;;;26.68;43.02;99027.22;5049761;28;45471;-54
2022/08/04 04:59:22;;;;;;;;;8.25;5.25;;;;;26.66;42.89;99018.41;5047793;28;45396;-53
2022/08/04 05:01:48;;;;;;;;;14.75;13.75;;;;;26.65;43.44;99022.13;5052124;28;45425;-54
2022/08/04 05:04:34;;;;;;;;;13.75;12.75;;;;;26.66;43.32;99018.41;5049765;28;45372;-54
2022/08/04 05:07:36;;;;;;;;;15.25;12.00;;;;;26.69;43.14;99023.50;5040469;28;45560;-53
2022/08/04 05:10:05;;;;;;;;;11.00;10.00;;;;;26.72;43.33;99023.16;5048483;28;45359;-54
2022/08/04 05:12:37;;;;;;;;;12.50;11.75;;;;;26.76;43.48;99024.53;5051689;28;46227;-52
2022/08/04 05:15:07;;;;;;;;;13.00;13.00;;;;;26.80;43.31;99022.34;5047088;28;45429;-54
2022/08/04 05:17:45;;;;;;;;;12.25;11.00;;;;;26.84;43.57;99029.09;5052273;28;45430;-53
2022/08/04 05:20:15;;;;;;;;;13.25;13.25;;;;;26.87;43.56;99027.91;5040555;28;45404;-54
2022/08/04 05:23:09;;;;;;;;;16.00;13.00;;;;;26.88;43.70;99037.72;5053168;28;45286;-54
2022/08/04 05:25:41;;;;;;;;;14.25;12.50;;;;;26.89;43.71;99036.72;5051904;28;45378;-57
2022/08/04 05:28:27;;;;;;;;;14.50;12.75;;;;;26.88;43.75;99035.88;5040559;28;45416;-57
2022/08/04 05:30:59;;;;;;;;;16.00;14.50;;;;;26.87;43.71;99047.69;5051232;28;45531;-57
2022/08/04 05:33:40;;;;;;;;;13.00;12.00;;;;;26.86;44.04;99040.59;5042112;28;46608;-58
2022/08/04 05:36:16;;;;;;;;;15.50;12.25;;;;;26.84;43.79;99044.47;5048273;28;45392;-55
2022/08/04 05:38:43;;;;;;;;;13.00;12.00;;;;;26.82;43.64;99044.63;5049926;28;45663;-56
2022/08/04 05:41:10;;;;;;;;;12.50;12.50;;;;;26.80;43.71;99040.44;5045207;28;45313;-55
2022/08/04 05:43:43;;;;;;;;;10.50;10.50;;;;;26.80;44.20;99035.88;5051584;28;46576;-55
2022/08/04 05:46:11;;;;;;;;;13.25;12.75;;;;;26.81;43.91;99039.41;5051292;28;45503;-56
2022/08/04 05:48:36;;;;;;;;;8.75;8.75;;;;;26.80;44.03;99049.41;5050976;28;45446;-55
2022/08/04 05:51:03;;;;;;;;;11.75;11.75;;;;;26.79;43.92;99041.44;5048776;28;45544;-56
2022/08/04 05:53:30;;;;;;;;;15.25;12.75;;;;;26.76;44.34;99045.31;5049877;28;46518;-56
2022/08/04 05:55:56;;;;;;;;;11.25;11.25;;;;;26.74;44.25;99045.47;5045710;28;45415;-56
2022/08/04 05:58:22;;;;;;;;;12.75;10.00;;;;;26.73;44.12;99048.34;5048428;28;45423;-55
2022/08/04 06:00:50;;;;;;;;;14.25;13.50;;;;;26.71;44.44;99047.66;5046565;28;45427;-58
2022/08/04 06:03:18;;;;;;;;;13.50;12.75;;;;;26.70;44.47;99051.38;5044519;28;47094;-57
2022/08/04 06:05:46;;;;;;;;;15.00;13.00;;;;;26.67;44.77;99046.31;5042492;28;45401;-56
2022/08/04 06:08:11;;;;;;;;;12.00;12.00;;;;;26.67;44.63;99047.16;5045223;28;45457;-57
2022/08/04 06:10:38;;;;;;;;;13.50;12.75;;;;;26.66;44.76;99044.59;5045681;28;45419;-57
2022/08/04 06:13:11;;;;;;;;;9.25;9.25;;;;;26.65;44.68;99043.75;5053343;28;46038;-57
2022/08/04 06:15:40;;;;;;;;;12.75;12.50;;;;;26.66;44.56;99050.00;5043751;28;45333;-57
2022/08/04 06:18:09;;;;;;;;;11.00;11.00;;;;;26.66;44.65;99052.72;5053337;28;45472;-57
2022/08/04 06:20:38;;;;;;;;;12.00;12.00;;;;;26.66;44.67;99058.13;5048266;28;45566;-57
2022/08/04 06:23:08;;;;;;;;;13.00;12.50;;;;;26.67;44.87;99057.13;5052565;28;46032;-57
2022/08/04 06:25:46;;;;;;;;;12.50;12.00;;;;;26.66;44.83;99053.56;5047910;28;45408;-57
2022/08/04 06:28:14;;;;;;;;;13.25;11.75;;;;;26.67;44.98;99054.41;5051063;28;45376;-57
2022/08/04 06:30:40;;;;;;;;;12.50;11.25;;;;;26.69;44.97;99060.50;5047058;28;45413;-57
2022/08/04 06:33:25;;;;;;;;;12.50;12.00;;;;;26.70;44.87;99062.19;5049739;28;47138;-57
2022/08/04 06:35:54;;;;;;;;;13.25;13.25;;;;;26.73;44.94;99062.72;5041362;28;45496;-66
2022/08/04 06:38:26;;;;;;;;;14.25;14.25;;;;;26.76;44.70;99062.41;5052841;28;45460;-67
2022/08/04 06:40:52;;;;;;;;;16.75;11.00;;;;;26.82;44.99;99060.03;5041450;28;45405;-67
2022/08/04 06:43:20;;;;;;;;;13.50;11.50;;;;;26.85;44.79;99063.25;5050642;28;45371;-65
2022/08/04 06:45:47;;;;;;;;;13.00;13.00;;;;;26.89;44.89;99059.19;5052153;28;45440;-65
2022/08/04 06:48:15;;;;;;;;;14.00;14.00;;;;;26.95;44.72;99065.84;5049751;28;45377;-66
2022/08/04 06:50:44;;;;;;;;;12.00;12.00;;;;;26.98;44.72;99060.94;5051805;28;45381;-66
2022/08/04 06:53:09;;;;;;;;;12.25;12.25;;;;;27.03;44.36;99064.00;5053333;28;45732;-66
2022/08/04 06:55:37;;;;;;;;;11.50;11.00;;;;;27.06;44.68;99069.06;5053558;28;45483;-66
2022/08/04 06:58:05;;;;;;;;;11.75;11.00;;;;;27.10;44.46;99073.13;5052115;28;45512;-66
2022/08/04 07:00:31;;;;;;;;;12.75;11.00;;;;;27.16;44.28;99070.75;5053646;28;45407;-66
2022/08/04 07:02:57;;;;;;;;;11.00;11.00;;;;;27.20;44.36;99072.13;5053031;28;46203;-65
2022/08/04 07:05:23;;;;;;;;;12.50;12.50;;;;;27.26;44.10;99068.75;5045390;28;45374;-56
2022/08/04 07:07:48;;;;;;;;;12.50;12.50;;;;;27.32;43.69;99063.50;5052400;28;45364;-55
2022/08/04 07:10:15;;;;;;;;;12.75;12.75;;;;;27.38;43.38;99068.22;5043511;28;45392;-55
2022/08/04 07:12:42;;;;;;;;;12.25;10.50;;;;;27.43;43.52;99068.59;5046251;28;45347;-56
2022/08/04 07:15:09;;;;;;;;;8.00;7.25;;;;;27.51;43.01;99061.44;5042275;28;45433;-56
2022/08/04 07:17:35;;;;;;;;;12.00;10.50;;;;;27.58;43.36;99062.50;5043795;28;45429;-57
2022/08/04 07:20:04;;;;;;;;;14.25;13.50;;;;;27.65;43.06;99063.53;5049177;28;45466;-56
2022/08/04 07:22:30;;;;;;;;;14.50;13.50;;;;;27.71;42.69;99066.38;5052237;28;45814;-56
2022/08/04 07:24:57;;;;;;;;;11.00;9.50;;;;;27.79;42.90;99068.22;5050494;28;45424;-56
2022/08/04 07:27:24;;;;;;;;;11.25;8.00;;;;;27.87;42.70;99064.66;5050693;28;45482;-57
2022/08/04 07:29:50;;;;;;;;;11.50;10.25;;;;;27.93;42.63;99053.13;5046715;28;45436;-55
2022/08/04 07:32:19;;;;;;;;;11.50;11.50;;;;;28.01;42.60;99063.94;5039875;28;45464;-56
2022/08/04 07:34:47;;;;;;;;;11.25;11.25;;;;;28.08;42.36;99056.81;5046091;28;45486;-57
2022/08/04 07:37:13;;;;;;;;;16.75;15.00;;;;;28.15;41.66;99065.94;5045360;28;45464;-56
2022/08/04 07:39:39;;;;;;;;;9.75;9.00;;;;;28.20;41.94;99062.72;5049502;28;45440;-56
2022/08/04 07:42:05;;;;;;;;;10.50;10.50;;;;;28.25;41.92;99057.63;5055814;28;46459;-56
2022/08/04 07:44:32;;;;;;;;;13.25;11.50;;;;;28.28;41.52;99060.00;5047885;28;45377;-56
2022/08/04 07:46:58;;;;;;;;;10.75;10.00;;;;;28.33;41.41;99061.13;5055721;28;45436;-57
2022/08/04 07:49:25;;;;;;;;;12.00;11.50;;;;;28.38;41.46;99053.31;5049808;28;45554;-57
2022/08/04 07:51:52;;;;;;;;;11.50;10.75;;;;;28.45;41.16;99053.47;5055625;28;47294;-56
2022/08/04 07:54:18;;;;;;;;;13.25;12.50;;;;;28.51;40.99;99054.59;5051993;28;45397;-56
2022/08/04 07:56:45;;;;;;;;;13.50;13.00;;;;;28.58;41.21;99051.03;5052368;28;45395;-56
2022/08/04 07:59:10;;;;;;;;;11.75;11.75;;;;;28.67;40.75;99049.09;5050138;28;45557;-56
2022/08/04 08:01:36;;;;;;;;;11.00;11.00;;;;;28.73;40.95;99042.97;5047430;28;45683;-55
2022/08/04 08:04:06;;;;;;;;;14.50;12.75;;;;;28.79;40.44;99045.84;5053584;28;45535;-55
2022/08/04 08:06:34;;;;;;;;;11.00;10.00;;;;;28.86;40.62;99045.97;5043255;28;45435;-57
2022/08/04 08:09:05;;;;;;;;;13.00;11.00;;;;;28.92;40.12;99047.97;5052937;28;45509;-57
2022/08/04 08:11:31;;;;;;;;;11.50;10.75;;;;;28.99;40.27;99048.09;5048015;28;45441;-58
2022/08/04 08:13:56;;;;;;;;;10.75;10.25;;;;;29.06;40.07;99051.75;5053568;28;45518;-57
2022/08/04 08:16:22;;;;;;;;;12.00;11.75;;;;;29.12;39.81;99043.75;5054682;28;45546;-58
2022/08/04 08:18:47;;;;;;;;;12.00;12.00;;;;;29.18;40.24;99042.16;5051147;28;45567;-58
2022/08/04 08:21:13;;;;;;;;;11.00;9.25;;;;;29.25;39.33;99039.56;5052665;28;46290;-56
2022/08/04 08:23:39;;;;;;;;;10.25;10.25;;;;;29.33;40.05;99039.47;5053797;28;45451;-57
2022/08/04 08:26:05;;;;;;;;;12.75;11.75;;;;;29.40;39.02;99030.47;5052513;28;45460;-57
2022/08/04 08:28:31;;;;;;;;;10.25;9.50;;;;;29.46;39.41;99034.31;5053416;28;45469;-57
2022/08/04 08:30:56;;;;;;;;;15.50;13.75;;;;;29.49;39.56;99023.91;5049306;28;46452;-57
2022/08/04 08:33:24;;;;;;;;;10.50;10.50;;;;;29.56;38.58;99023.19;5053448;28;45457;-55
2022/08/04 08:36:13;;;;;;;;;12.50;12.25;;;;;29.63;38.52;99022.28;5048392;28;45492;-58
2022/08/04 08:38:48;;;;;;;;;12.50;12.50;;;;;29.69;38.86;99024.22;5052342;28;45632;-57
2022/08/04 08:41:31;;;;;;;;;12.00;12.00;;;;;29.76;38.90;99021.63;5053705;28;46363;-58
2022/08/04 08:44:04;;;;;;;;;13.25;11.50;;;;;29.81;37.60;99016.47;5048415;28;45466;-67
2022/08/04 08:47:08;;;;;;;;;14.25;13.25;;;;;29.84;37.72;99008.78;5052956;28;45333;-66
2022/08/04 08:50:02;;;;;;;;;11.25;11.25;;;;;29.90;37.73;99003.63;5053036;28;45441;-66
2022/08/04 08:52:42;;;;;;;;;12.25;11.00;;;;;29.95;37.36;99012.91;5053903;28;45441;-66
2022/08/04 08:55:30;;;;;;;;;13.25;11.25;;;;;29.97;37.62;99012.72;5045892;28;45464;-67
2022/08/04 08:58:18;;;;;;;;;14.00;14.00;;;;;29.99;37.76;99007.97;5054583;28;45358;-57
2022/08/04 09:00:46;;;;;;;;;12.00;12.00;;;;;30.04;37.67;99000.94;5048771;28;45397;-57
2022/08/04 09:03:32;;;;;;;;;13.75;13.75;;;;;30.08;37.03;98991.38;5051422;28;46474;-57
2022/08/04 09:06:33;;;;;;;;;13.00;12.50;;;;;30.14;37.38;98995.22;5047804;28;45486;-57
2022/08/04 09:09:10;;;;;;;;;14.50;13.00;;;;;30.22;36.81;98988.81;5030861;28;45370;-57
2022/08/04 09:11:57;;;;;;;;;12.50;12.50;;;;;30.31;36.68;98998.56;5043909;28;45369;-58
2022/08/04 09:14:52;;;;;;;;;14.75;13.25;;;;;30.39;36.43;98991.13;5045950;28;46646;-58
2022/08/04 09:17:25;;;;;;;;;14.50;13.50;;;;;30.50;36.52;98987.03;5047131;28;45467;-57
2022/08/04 09:20:02;;;;;;;;;11.00;9.50;;;;;30.58;36.28;98989.69;5051589;28;45475;-57
2022/08/04 09:22:49;;;;;;;;;15.50;13.25;;;;;30.66;36.64;98986.88;5040719;28;45476;-57
2022/08/04 09:25:17;;;;;;;;;16.25;15.00;;;;;30.74;36.39;98985.88;5050438;28;46692;-57
2022/08/04 09:27:50;;;;;;;;;10.50;10.50;;;;;30.81;36.19;98982.22;5043364;28;45337;-57
2022/08/04 09:30:19;;;;;;;;;13.50;12.25;;;;;30.90;36.91;98980.19;5048942;28;45511;-58
2022/08/04 09:33:03;;;;;;;;;12.75;12.50;;;;;31.01;35.79;98989.69;5054730;28;45357;-60
2022/08/04 09:35:43;;;;;;;;;15.00;15.00;;;;;31.07;35.41;98978.03;5050821;28;46570;-58
2022/08/04 09:38:29;;;;;;;;;14.00;13.00;;;;;31.11;35.59;98979.38;5053222;28;45376;-57
2022/08/04 09:41:05;;;;;;;;;13.50;13.50;;;;;31.16;35.44;98972.31;5049557;28;45589;-57
2022/08/04 09:43:55;;;;;;;;;13.75;13.50;;;;;31.24;35.43;98971.31;5052014;28;45472;-58
2022/08/04 09:46:29;;;;;;;;;14.00;12.75;;;;;31.30;35.70;98972.41;5051726;28;46627;-67
2022/08/04 09:49:05;;;;;;;;;15.50;14.75;;;;;31.32;35.35;98968.44;5053956;28;45377;-67
2022/08/04 09:51:33;;;;;;;;;19.00;15.00;;;;;31.38;35.38;98973.09;5052358;28;45385;-66
2022/08/04 09:54:11;;;;;;;;;15.00;14.00;;;;;31.45;35.36;98963.09;5045353;28;45614;-66
2022/08/04 09:56:52;;;;;;;;;15.67;14.67;;;;;31.51;35.31;98959.53;5051007;28;46586;-67
2022/08/04 09:59:45;;;;;;;;;15.00;15.00;;;;;31.61;35.16;98953.75;5051639;28;45491;-66
2022/08/04 10:02:13;;;;;;;;;13.50;12.25;;;;;31.67;35.47;98957.59;5048497;28;45503;-66
2022/08/04 10:04:42;;;;;;;;;13.50;13.50;;;;;31.72;35.51;98949.66;5047181;28;45479;-66
2022/08/04 10:07:28;;;;;;;;;14.75;13.25;;;;;31.79;35.85;98945.09;5053760;28;45528;-66
2022/08/04 10:10:21;;;;;;;;;19.25;16.75;;;;;31.89;36.04;98946.38;5042242;28;45515;-58
2022/08/04 10:13:06;;;;;;;;;16.00;13.75;;;;;31.96;36.06;98940.13;5044756;28;45486;-58
2022/08/04 10:15:34;;;;;;;;;13.75;13.75;;;;;32.01;35.82;98938.47;5049364;28;45499;-58
2022/08/04 10:18:13;;;;;;;;;19.75;18.00;;;;;32.09;35.52;98932.84;5045853;28;45752;-58
2022/08/04 10:20:54;;;;;;;;;15.25;13.25;;;;;32.15;35.20;98936.66;5050606;28;45530;-58
2022/08/04 10:23:32;;;;;;;;;15.50;15.00;;;;;32.22;35.08;98932.91;5045269;28;45333;-58
2022/08/04 10:26:18;;;;;;;;;14.50;14.25;;;;;32.31;35.04;98924.56;5044546;28;45444;-57
2022/08/04 10:28:52;;;;;;;;;18.00;15.00;;;;;32.37;34.97;98923.72;5046672;28;45464;-58
2022/08/04 10:31:28;;;;;;;;;20.00;17.25;;;;;32.42;34.44;98921.22;5052284;28;45455;-58
2022/08/04 10:34:04;;;;;;;;;13.75;13.75;;;;;32.47;34.15;98922.31;5050746;28;45429;-58
2022/08/04 10:36:48;;;;;;;;;11.25;11.25;;;;;32.57;34.10;98905.50;5045153;28;45461;-58
2022/08/04 10:39:18;;;;;;;;;9.00;9.00;;;;;32.70;34.09;98904.69;5048304;28;47358;-58
2022/08/04 10:42:11;;;;;;;;;11.00;9.75;;;;;32.81;33.58;98899.50;5051706;28;45929;-58
2022/08/04 10:44:51;;;;;;;;;11.00;11.00;;;;;32.90;33.69;98902.84;5047182;28;45458;-57
2022/08/04 10:47:25;;;;;;;;;12.00;11.50;;;;;32.97;33.38;98900.97;5051397;28;45290;-58
2022/08/04 10:49:57;;;;;;;;;12.75;12.00;;;;;33.01;33.03;98894.03;5046645;28;46632;-58
2022/08/04 10:52:34;;;;;;;;;11.25;10.50;;;;;33.09;31.86;98895.69;5053625;28;45411;-58
2022/08/04 10:55:10;;;;;;;;;11.50;11.50;;;;;33.15;32.39;98879.31;5046638;28;45424;-58
2022/08/04 10:57:49;;;;;;;;;13.00;11.00;;;;;33.30;32.38;98884.56;5044942;28;45307;-58
2022/08/04 11:00:21;;;;;;;;;11.75;11.75;;;;;33.38;32.04;98878.84;5045454;28;45564;-58
2022/08/04 11:02:50;;;;;;;;;11.00;11.00;;;;;33.45;31.60;98876.97;5051631;28;45372;-58
2022/08/04 11:05:35;;;;;;;;;13.75;12.25;;;;;33.51;31.16;98883.47;5043588;28;45653;-58
2022/08/04 11:08:05;;;;;;;;;9.00;8.50;;;;;33.56;30.41;98884.50;5048781;28;45550;-58
2022/08/04 11:10:36;;;;;;;;;11.00;10.25;;;;;33.63;30.59;98877.13;5044733;28;45625;-57
2022/08/04 11:13:09;;;;;;;;;12.00;9.75;;;;;33.73;30.27;98870.34;5047798;27;45529;-59
2022/08/04 11:15:50;;;;;;;;;10.25;7.50;;;;;33.81;29.82;98887.41;5044599;28;45515;-58
2022/08/04 11:18:46;;;;;;;;;12.50;9.50;;;;;33.91;29.89;98875.97;5048856;28;45377;-58
2022/08/04 11:21:18;;;;;;;;;10.00;10.00;;;;;34.03;29.74;98870.66;5050014;28;46193;-67
2022/08/04 11:23:52;;;;;;;;;13.50;12.50;;;;;34.15;29.57;98871.66;5051547;28;45440;-58
2022/08/04 11:26:29;;;;;;;;;9.00;9.00;;;;;34.28;28.72;98872.47;5056352;28;45420;-58
2022/08/04 11:29:04;;;;;;;;;10.50;10.50;;;;;34.41;29.06;98859.72;5052052;28;45428;-58
2022/08/04 11:31:38;;;;;;;;;11.25;10.75;;;;;34.57;27.87;98859.19;5047733;28;45382;-58
2022/08/04 11:34:23;;;;;;;;;11.75;9.00;;;;;34.70;28.05;98847.28;5053645;28;45414;-58
2022/08/04 11:36:51;;;;;;;;;12.25;12.25;;;;;34.82;27.47;98849.13;5045266;28;45304;-58
2022/08/04 11:39:29;;;;;;;;;10.25;10.25;;;;;34.91;27.77;98838.72;5052704;28;45583;-56
2022/08/04 11:42:13;;;;;;;;;12.25;12.25;;;;;34.99;28.00;98839.28;5055748;28;46176;-57
2022/08/04 11:44:49;;;;;;;;;8.75;8.75;;;;;35.08;27.07;98838.97;5050093;28;45420;-57
2022/08/04 11:47:23;;;;;;;;;14.50;13.00;;;;;35.09;27.45;98835.19;5054487;28;45436;-56
2022/08/04 11:49:57;;;;;;;;;9.00;9.00;;;;;35.16;27.49;98838.72;5050226;28;45468;-56
2022/08/04 11:52:25;;;;;;;;;10.75;10.75;;;;;35.25;27.20;98834.59;5056319;28;45376;-58
2022/08/04 11:54:51;;;;;;;;;11.00;11.00;;;;;35.34;26.50;98819.56;5049180;28;45471;-58
2022/08/04 11:57:17;;;;;;;;;11.75;11.75;;;;;35.43;27.26;98837.38;5056554;28;45456;-58
2022/08/04 11:59:44;;;;;;;;;8.50;8.50;;;;;35.46;27.27;98827.84;5048628;28;45526;-58
2022/08/04 12:02:21;;;;;;;;;11.00;9.75;;;;;35.40;26.47;98823.28;5055170;28;45783;-58